sensor_id;sensor_type;location;lat;lon;timestamp;pressure;altitude;pressure_sealevel;temperature
31528;BMP280;10206;48.012;10.030;2022-12-05T00:01:28;94400.13;;;4.87
31528;BMP280;10206;48.012;10.030;2022-12-05T00:03:56;94405.78;;;4.68
31528;BMP280;10206;48.012;10.030;2022-12-05T00:06:24;94399.88;;;4.77
31528;BMP280;10206;48.012;10.030;2022-12-05T00:08:51;94408.44;;;4.96
31528;BMP280;10206;48.012;10.030;2022-12-05T00:11:20;94420.09;;;4.91
31528;BMP280;10206;48.012;10.030;2022-12-05T00:13:47;94440.97;;;4.83
31528;BMP280;10206;48.012;10.030;2022-12-05T00:16:17;94438.06;;;4.81
31528;BMP280;10206;48.012;10.030;2022-12-05T00:18:43;94443.22;;;4.72
31528;BMP280;10206;48.012;10.030;2022-12-05T00:21:18;94446.66;;;4.72
31528;BMP280;10206;48.012;10.030;2022-12-05T00:23:44;94439.63;;;4.69
31528;BMP280;10206;48.012;10.030;2022-12-05T00:26:11;94424.09;;;4.62
31528;BMP280;10206;48.012;10.030;2022-12-05T00:28:37;94433.22;;;4.80
31528;BMP280;10206;48.012;10.030;2022-12-05T00:31:06;94435.75;;;4.85
31528;BMP280;10206;48.012;10.030;2022-12-05T00:33:32;94442.25;;;4.90
31528;BMP280;10206;48.012;10.030;2022-12-05T00:36:03;94441.94;;;4.93
31528;BMP280;10206;48.012;10.030;2022-12-05T00:38:30;94449.50;;;4.95
31528;BMP280;10206;48.012;10.030;2022-12-05T00:41:02;94457.84;;;5.04
31528;BMP280;10206;48.012;10.030;2022-12-05T00:43:28;94472.22;;;4.99
31528;BMP280;10206;48.012;10.030;2022-12-05T00:45:54;94468.84;;;4.78
31528;BMP280;10206;48.012;10.030;2022-12-05T00:48:21;94476.00;;;4.68
31528;BMP280;10206;48.012;10.030;2022-12-05T00:50:47;94485.25;;;4.80
31528;BMP280;10206;48.012;10.030;2022-12-05T00:53:13;94490.19;;;4.89
31528;BMP280;10206;48.012;10.030;2022-12-05T00:55:39;94492.31;;;4.83
31528;BMP280;10206;48.012;10.030;2022-12-05T00:58:05;94480.47;;;4.66
31528;BMP280;10206;48.012;10.030;2022-12-05T01:00:31;94496.50;;;4.64
31528;BMP280;10206;48.012;10.030;2022-12-05T01:02:57;94510.06;;;4.71
31528;BMP280;10206;48.012;10.030;2022-12-05T01:05:23;94520.81;;;4.92
31528;BMP280;10206;48.012;10.030;2022-12-05T01:07:49;94527.34;;;4.96
31528;BMP280;10206;48.012;10.030;2022-12-05T01:10:15;94521.38;;;4.70
31528;BMP280;10206;48.012;10.030;2022-12-05T01:12:41;94511.81;;;4.89
31528;BMP280;10206;48.012;10.030;2022-12-05T01:15:08;94517.34;;;4.84
31528;BMP280;10206;48.012;10.030;2022-12-05T01:17:34;94526.38;;;4.66
31528;BMP280;10206;48.012;10.030;2022-12-05T01:20:00;94517.91;;;4.90
31528;BMP280;10206;48.012;10.030;2022-12-05T01:22:26;94526.47;;;5.01
31528;BMP280;10206;48.012;10.030;2022-12-05T01:24:52;94539.06;;;4.99
31528;BMP280;10206;48.012;10.030;2022-12-05T01:27:19;94553.03;;;4.90
31528;BMP280;10206;48.012;10.030;2022-12-05T01:29:45;94574.00;;;4.56
31528;BMP280;10206;48.012;10.030;2022-12-05T01:32:11;94575.94;;;4.89
31528;BMP280;10206;48.012;10.030;2022-12-05T01:34:37;94583.94;;;5.02
31528;BMP280;10206;48.012;10.030;2022-12-05T01:37:03;94583.94;;;5.02
31528;BMP280;10206;48.012;10.030;2022-12-05T01:39:29;94596.13;;;4.75
31528;BMP280;10206;48.012;10.030;2022-12-05T01:41:55;94590.88;;;4.90
31528;BMP280;10206;48.012;10.030;2022-12-05T01:46:51;94595.41;;;4.54
31528;BMP280;10206;48.012;10.030;2022-12-05T01:49:33;94589.38;;;4.61
31528;BMP280;10206;48.012;10.030;2022-12-05T01:52:15;94593.59;;;4.69
31528;BMP280;10206;48.012;10.030;2022-12-05T01:54:44;94584.75;;;4.89
31528;BMP280;10206;48.012;10.030;2022-12-05T01:57:12;94589.75;;;4.85
31528;BMP280;10206;48.012;10.030;2022-12-05T01:59:41;94589.81;;;4.72
31528;BMP280;10206;48.012;10.030;2022-12-05T02:02:09;94580.41;;;4.66
31528;BMP280;10206;48.012;10.030;2022-12-05T02:04:50;94586.34;;;4.64
31528;BMP280;10206;48.012;10.030;2022-12-05T02:07:18;94603.19;;;4.98
31528;BMP280;10206;48.012;10.030;2022-12-05T02:09:44;94605.50;;;4.94
31528;BMP280;10206;48.012;10.030;2022-12-05T02:12:11;94614.78;;;4.44
31528;BMP280;10206;48.012;10.030;2022-12-05T02:20:29;94600.38;;;4.83
31528;BMP280;10206;48.012;10.030;2022-12-05T02:23:54;94595.09;;;4.98
31528;BMP280;10206;48.012;10.030;2022-12-05T02:29:25;94590.31;;;4.91
31528;BMP280;10206;48.012;10.030;2022-12-05T02:32:16;94598.72;;;5.01
31528;BMP280;10206;48.012;10.030;2022-12-05T02:38:24;94608.72;;;4.72
31528;BMP280;10206;48.012;10.030;2022-12-05T02:40:30;94598.00;;;5.00
31528;BMP280;10206;48.012;10.030;2022-12-05T02:43:19;94601.97;;;5.07
31528;BMP280;10206;48.012;10.030;2022-12-05T02:45:50;94601.84;;;4.84
31528;BMP280;10206;48.012;10.030;2022-12-05T02:48:19;94604.75;;;5.15
31528;BMP280;10206;48.012;10.030;2022-12-05T02:50:46;94621.28;;;5.03
31528;BMP280;10206;48.012;10.030;2022-12-05T02:53:14;94623.41;;;5.26
31528;BMP280;10206;48.012;10.030;2022-12-05T02:55:43;94615.97;;;5.19
31528;BMP280;10206;48.012;10.030;2022-12-05T02:58:18;94615.28;;;5.26
31528;BMP280;10206;48.012;10.030;2022-12-05T03:00:48;94622.34;;;5.29
31528;BMP280;10206;48.012;10.030;2022-12-05T03:03:17;94623.34;;;5.39
31528;BMP280;10206;48.012;10.030;2022-12-05T03:08:22;94624.19;;;5.34
31528;BMP280;10206;48.012;10.030;2022-12-05T03:10:51;94627.19;;;5.23
31528;BMP280;10206;48.012;10.030;2022-12-05T03:13:31;94623.97;;;5.32
31528;BMP280;10206;48.012;10.030;2022-12-05T03:16:04;94616.59;;;5.32
31528;BMP280;10206;48.012;10.030;2022-12-05T03:18:59;94632.16;;;5.39
31528;BMP280;10206;48.012;10.030;2022-12-05T03:21:33;94623.84;;;5.37
31528;BMP280;10206;48.012;10.030;2022-12-05T03:24:04;94617.91;;;5.39
31528;BMP280;10206;48.012;10.030;2022-12-05T03:29:30;94627.56;;;5.55
31528;BMP280;10206;48.012;10.030;2022-12-05T03:32:15;94622.25;;;5.42
31528;BMP280;10206;48.012;10.030;2022-12-05T03:35:08;94630.25;;;5.55
31528;BMP280;10206;48.012;10.030;2022-12-05T03:37:52;94620.78;;;5.41
31528;BMP280;10206;48.012;10.030;2022-12-05T03:41:19;94614.78;;;5.63
31528;BMP280;10206;48.012;10.030;2022-12-05T03:43:37;94619.63;;;5.57
31528;BMP280;10206;48.012;10.030;2022-12-05T03:46:21;94615.72;;;5.37
31528;BMP280;10206;48.012;10.030;2022-12-05T03:51:39;94612.66;;;5.69
31528;BMP280;10206;48.012;10.030;2022-12-05T03:54:15;94615.66;;;5.58
31528;BMP280;10206;48.012;10.030;2022-12-05T03:56:50;94605.28;;;5.41
31528;BMP280;10206;48.012;10.030;2022-12-05T03:59:43;94622.31;;;5.57
31528;BMP280;10206;48.012;10.030;2022-12-05T04:02:16;94622.06;;;5.68
31528;BMP280;10206;48.012;10.030;2022-12-05T04:04:55;94617.28;;;5.53
31528;BMP280;10206;48.012;10.030;2022-12-05T04:07:26;94599.44;;;5.58
31528;BMP280;10206;48.012;10.030;2022-12-05T04:10:00;94599.81;;;5.54
31528;BMP280;10206;48.012;10.030;2022-12-05T04:12:30;94607.41;;;5.63
31528;BMP280;10206;48.012;10.030;2022-12-05T04:15:01;94605.63;;;5.66
31528;BMP280;10206;48.012;10.030;2022-12-05T04:20:03;94611.91;;;5.61
31528;BMP280;10206;48.012;10.030;2022-12-05T04:22:48;94613.16;;;5.60
31528;BMP280;10206;48.012;10.030;2022-12-05T04:25:16;94618.63;;;5.75
31528;BMP280;10206;48.012;10.030;2022-12-05T04:37:05;94622.28;;;5.85
31528;BMP280;10206;48.012;10.030;2022-12-05T04:39:20;94615.84;;;5.96
31528;BMP280;10206;48.012;10.030;2022-12-05T04:41:56;94621.88;;;5.74
31528;BMP280;10206;48.012;10.030;2022-12-05T04:44:29;94630.72;;;5.74
31528;BMP280;10206;48.012;10.030;2022-12-05T04:47:01;94625.69;;;5.78
31528;BMP280;10206;48.012;10.030;2022-12-05T04:49:30;94630.59;;;5.87
31528;BMP280;10206;48.012;10.030;2022-12-05T04:52:00;94627.34;;;5.81
31528;BMP280;10206;48.012;10.030;2022-12-05T04:57:18;94629.56;;;5.62
31528;BMP280;10206;48.012;10.030;2022-12-05T04:59:47;94630.72;;;5.74
31528;BMP280;10206;48.012;10.030;2022-12-05T05:02:17;94640.88;;;5.53
31528;BMP280;10206;48.012;10.030;2022-12-05T05:04:51;94648.22;;;5.73
31528;BMP280;10206;48.012;10.030;2022-12-05T05:07:18;94648.91;;;5.66
31528;BMP280;10206;48.012;10.030;2022-12-05T05:09:45;94645.06;;;5.54
31528;BMP280;10206;48.012;10.030;2022-12-05T05:12:12;94638.56;;;5.57
31528;BMP280;10206;48.012;10.030;2022-12-05T05:14:38;94646.34;;;5.60
31528;BMP280;10206;48.012;10.030;2022-12-05T05:17:04;94644.47;;;5.48
31528;BMP280;10206;48.012;10.030;2022-12-05T05:19:30;94649.88;;;5.55
31528;BMP280;10206;48.012;10.030;2022-12-05T05:21:56;94647.06;;;5.61
31528;BMP280;10206;48.012;10.030;2022-12-05T05:24:23;94649.88;;;5.55
31528;BMP280;10206;48.012;10.030;2022-12-05T05:26:51;94658.19;;;5.50
31528;BMP280;10206;48.012;10.030;2022-12-05T05:29:17;94662.00;;;5.54
31528;BMP280;10206;48.012;10.030;2022-12-05T05:31:44;94665.03;;;5.51
31528;BMP280;10206;48.012;10.030;2022-12-05T05:34:11;94665.22;;;5.53
31528;BMP280;10206;48.012;10.030;2022-12-05T05:36:38;94673.16;;;5.51
31528;BMP280;10206;48.012;10.030;2022-12-05T05:39:05;94669.78;;;5.58
31528;BMP280;10206;48.012;10.030;2022-12-05T05:41:34;94664.72;;;5.62
31528;BMP280;10206;48.012;10.030;2022-12-05T05:44:01;94672.19;;;5.69
31528;BMP280;10206;48.012;10.030;2022-12-05T05:46:30;94672.00;;;5.67
31528;BMP280;10206;48.012;10.030;2022-12-05T05:48:57;94673.25;;;5.66
31528;BMP280;10206;48.012;10.030;2022-12-05T05:51:24;94671.69;;;5.78
31528;BMP280;10206;48.012;10.030;2022-12-05T05:53:52;94679.06;;;5.70
31528;BMP280;10206;48.012;10.030;2022-12-05T05:56:20;94673.06;;;5.71
31528;BMP280;10206;48.012;10.030;2022-12-05T05:58:46;94680.19;;;5.82
31528;BMP280;10206;48.012;10.030;2022-12-05T06:01:16;94685.34;;;5.72
31528;BMP280;10206;48.012;10.030;2022-12-05T06:03:44;94686.88;;;5.81
31528;BMP280;10206;48.012;10.030;2022-12-05T06:06:12;94690.72;;;5.93
31528;BMP280;10206;48.012;10.030;2022-12-05T06:08:40;94691.25;;;5.92
31528;BMP280;10206;48.012;10.030;2022-12-05T06:11:19;94695.41;;;5.93
31528;BMP280;10206;48.012;10.030;2022-12-05T06:13:46;94690.91;;;5.95
31528;BMP280;10206;48.012;10.030;2022-12-05T06:16:14;94686.22;;;5.96
31528;BMP280;10206;48.012;10.030;2022-12-05T06:18:40;94699.44;;;5.99
31528;BMP280;10206;48.012;10.030;2022-12-05T06:21:07;94693.84;;;5.97
31528;BMP280;10206;48.012;10.030;2022-12-05T06:23:34;94693.31;;;6.06
31528;BMP280;10206;48.012;10.030;2022-12-05T06:26:02;94707.44;;;6.12
31528;BMP280;10206;48.012;10.030;2022-12-05T06:28:28;94702.19;;;6.14
31528;BMP280;10206;48.012;10.030;2022-12-05T06:30:54;94702.03;;;6.12
31528;BMP280;10206;48.012;10.030;2022-12-05T06:33:21;94707.25;;;6.18
31528;BMP280;10206;48.012;10.030;2022-12-05T06:35:47;94707.66;;;6.22
31528;BMP280;10206;48.012;10.030;2022-12-05T06:38:13;94713.06;;;6.22
31528;BMP280;10206;48.012;10.030;2022-12-05T06:40:40;94700.59;;;6.19
31528;BMP280;10206;48.012;10.030;2022-12-05T06:43:07;94709.31;;;6.32
31528;BMP280;10206;48.012;10.030;2022-12-05T06:45:33;94712.56;;;6.31
31528;BMP280;10206;48.012;10.030;2022-12-05T06:47:59;94716.75;;;6.40
31528;BMP280;10206;48.012;10.030;2022-12-05T06:50:26;94721.63;;;6.41
31528;BMP280;10206;48.012;10.030;2022-12-05T06:52:52;94721.63;;;6.41
31528;BMP280;10206;48.012;10.030;2022-12-05T06:55:18;94722.34;;;6.42
31528;BMP280;10206;48.012;10.030;2022-12-05T06:57:44;94735.41;;;6.51
31528;BMP280;10206;48.012;10.030;2022-12-05T07:00:10;94734.84;;;6.52
31528;BMP280;10206;48.012;10.030;2022-12-05T07:02:55;94738.47;;;6.55
31528;BMP280;10206;48.012;10.030;2022-12-05T07:05:21;94738.47;;;6.55
31528;BMP280;10206;48.012;10.030;2022-12-05T07:07:47;94737.41;;;6.58
31528;BMP280;10206;48.012;10.030;2022-12-05T07:10:13;94738.66;;;6.57
31528;BMP280;10206;48.012;10.030;2022-12-05T07:12:39;94729.47;;;6.60
31528;BMP280;10206;48.012;10.030;2022-12-05T07:15:06;94735.22;;;6.56
31528;BMP280;10206;48.012;10.030;2022-12-05T07:17:35;94742.34;;;6.74
31528;BMP280;10206;48.012;10.030;2022-12-05T07:20:04;94737.44;;;6.65
31528;BMP280;10206;48.012;10.030;2022-12-05T07:22:30;94745.97;;;6.77
31528;BMP280;10206;48.012;10.030;2022-12-05T07:24:56;94746.09;;;6.64
31528;BMP280;10206;48.012;10.030;2022-12-05T07:27:22;94749.00;;;6.66
31528;BMP280;10206;48.012;10.030;2022-12-05T07:29:48;94746.66;;;6.70
31528;BMP280;10206;48.012;10.030;2022-12-05T07:32:15;94753.19;;;6.82
31528;BMP280;10206;48.012;10.030;2022-12-05T07:34:41;94775.41;;;6.80
31528;BMP280;10206;48.012;10.030;2022-12-05T07:37:07;94772.34;;;6.76
31528;BMP280;10206;48.012;10.030;2022-12-05T07:39:34;94767.78;;;6.64
31528;BMP280;10206;48.012;10.030;2022-12-05T07:42:00;94776.34;;;6.83
31528;BMP280;10206;48.012;10.030;2022-12-05T07:44:26;94788.91;;;6.65
31528;BMP280;10206;48.012;10.030;2022-12-05T07:46:52;94783.72;;;6.75
31528;BMP280;10206;48.012;10.030;2022-12-05T07:49:18;94785.50;;;6.65
31528;BMP280;10206;48.012;10.030;2022-12-05T07:51:44;94783.22;;;6.84
31528;BMP280;10206;48.012;10.030;2022-12-05T07:54:10;94779.44;;;6.87
31528;BMP280;10206;48.012;10.030;2022-12-05T07:56:36;94789.75;;;6.96
31528;BMP280;10206;48.012;10.030;2022-12-05T07:59:03;94799.91;;;7.03
31528;BMP280;10206;48.012;10.030;2022-12-05T08:01:29;94800.97;;;7.00
31528;BMP280;10206;48.012;10.030;2022-12-05T08:03:57;94784.44;;;6.75
31528;BMP280;10206;48.012;10.030;2022-12-05T08:06:28;94789.78;;;7.04
31528;BMP280;10206;48.012;10.030;2022-12-05T08:08:56;94805.16;;;7.09
31528;BMP280;10206;48.012;10.030;2022-12-05T08:11:28;94797.03;;;7.16
31528;BMP280;10206;48.012;10.030;2022-12-05T08:13:55;94797.00;;;7.09
31528;BMP280;10206;48.012;10.030;2022-12-05T08:16:24;94796.06;;;6.99
31528;BMP280;10206;48.012;10.030;2022-12-05T08:18:55;94798.97;;;7.01
31528;BMP280;10206;48.012;10.030;2022-12-05T08:21:21;94797.50;;;6.92
31528;BMP280;10206;48.012;10.030;2022-12-05T08:23:48;94804.03;;;6.97
31528;BMP280;10206;48.012;10.030;2022-12-05T08:26:19;94806.06;;;7.04
31528;BMP280;10206;48.012;10.030;2022-12-05T08:28:50;94798.81;;;7.14
31528;BMP280;10206;48.012;10.030;2022-12-05T08:31:18;94806.78;;;7.12
31528;BMP280;10206;48.012;10.030;2022-12-05T08:33:45;94811.03;;;6.84
31528;BMP280;10206;48.012;10.030;2022-12-05T08:36:13;94820.13;;;7.02
31528;BMP280;10206;48.012;10.030;2022-12-05T08:38:41;94816.75;;;7.24
31528;BMP280;10206;48.012;10.030;2022-12-05T08:41:10;94829.59;;;7.24
31528;BMP280;10206;48.012;10.030;2022-12-05T08:43:37;94826.31;;;7.10
31528;BMP280;10206;48.012;10.030;2022-12-05T08:46:03;94831.22;;;7.27
31528;BMP280;10206;48.012;10.030;2022-12-05T08:48:31;94837.38;;;7.27
31528;BMP280;10206;48.012;10.030;2022-12-05T08:50:58;94831.38;;;7.21
31528;BMP280;10206;48.012;10.030;2022-12-05T08:53:25;94837.53;;;7.22
31528;BMP280;10206;48.012;10.030;2022-12-05T08:55:51;94837.34;;;7.12
31528;BMP280;10206;48.012;10.030;2022-12-05T08:58:17;94828.84;;;7.23
31528;BMP280;10206;48.012;10.030;2022-12-05T09:00:43;94834.50;;;7.40
31528;BMP280;10206;48.012;10.030;2022-12-05T09:03:11;94841.38;;;7.34
31528;BMP280;10206;48.012;10.030;2022-12-05T09:05:37;94847.81;;;7.08
31528;BMP280;10206;48.012;10.030;2022-12-05T09:08:04;94857.19;;;7.07
31528;BMP280;10206;48.012;10.030;2022-12-05T09:10:30;94859.97;;;7.30
31528;BMP280;10206;48.012;10.030;2022-12-05T09:12:56;94857.41;;;7.09
31528;BMP280;10206;48.012;10.030;2022-12-05T09:15:22;94859.41;;;7.16
31528;BMP280;10206;48.012;10.030;2022-12-05T09:17:48;94852.03;;;7.24
31528;BMP280;10206;48.012;10.030;2022-12-05T09:20:14;94869.03;;;7.25
31528;BMP280;10206;48.012;10.030;2022-12-05T09:22:41;94871.91;;;7.27
31528;BMP280;10206;48.012;10.030;2022-12-05T09:25:08;94863.94;;;7.21
31528;BMP280;10206;48.012;10.030;2022-12-05T09:27:35;94857.25;;;7.30
31528;BMP280;10206;48.012;10.030;2022-12-05T09:30:02;94867.00;;;7.10
31528;BMP280;10206;48.012;10.030;2022-12-05T09:32:28;94867.44;;;7.44
31528;BMP280;10206;48.012;10.030;2022-12-05T09:34:54;94865.44;;;7.52
31528;BMP280;10206;48.012;10.030;2022-12-05T09:37:20;94867.41;;;7.29
31528;BMP280;10206;48.012;10.030;2022-12-05T09:39:47;94871.28;;;7.06
31528;BMP280;10206;48.012;10.030;2022-12-05T09:42:31;94869.63;;;6.95
31528;BMP280;10206;48.012;10.030;2022-12-05T09:47:55;94884.81;;;7.56
31528;BMP280;10206;48.012;10.030;2022-12-05T09:50:40;94879.91;;;7.32
31528;BMP280;10206;48.012;10.030;2022-12-05T09:58:26;94874.16;;;7.74
31528;BMP280;10206;48.012;10.030;2022-12-05T10:01:23;94868.00;;;7.66
31528;BMP280;10206;48.012;10.030;2022-12-05T10:17:52;94883.19;;;7.53
31528;BMP280;10206;48.012;10.030;2022-12-05T10:20:31;94872.84;;;7.37
31528;BMP280;10206;48.012;10.030;2022-12-05T10:23:11;94878.69;;;7.48
31528;BMP280;10206;48.012;10.030;2022-12-05T10:25:39;94877.53;;;7.29
31528;BMP280;10206;48.012;10.030;2022-12-05T10:28:14;94871.47;;;7.58
31528;BMP280;10206;48.012;10.030;2022-12-05T10:30:44;94868.22;;;7.83
31528;BMP280;10206;48.012;10.030;2022-12-05T10:33:19;94877.25;;;7.78
31528;BMP280;10206;48.012;10.030;2022-12-05T10:35:46;94870.03;;;7.80
31528;BMP280;10206;48.012;10.030;2022-12-05T10:38:29;94877.97;;;7.86
31528;BMP280;10206;48.012;10.030;2022-12-05T10:40:59;94882.31;;;7.66
31528;BMP280;10206;48.012;10.030;2022-12-05T10:43:30;94885.38;;;7.55
31528;BMP280;10206;48.012;10.030;2022-12-05T10:45:57;94887.00;;;7.50
31528;BMP280;10206;48.012;10.030;2022-12-05T10:48:23;94878.69;;;7.48
31528;BMP280;10206;48.012;10.030;2022-12-05T10:50:52;94876.78;;;7.21
31528;BMP280;10206;48.012;10.030;2022-12-05T10:53:23;94880.66;;;7.55
31528;BMP280;10206;48.012;10.030;2022-12-05T10:55:51;94884.72;;;7.19
31528;BMP280;10206;48.012;10.030;2022-12-05T10:58:25;94884.19;;;7.13
31528;BMP280;10206;48.012;10.030;2022-12-05T11:01:08;94879.56;;;7.36
31528;BMP280;10206;48.012;10.030;2022-12-05T11:03:37;94881.19;;;7.46
31528;BMP280;10206;48.012;10.030;2022-12-05T11:06:24;94881.19;;;7.46
31528;BMP280;10206;48.012;10.030;2022-12-05T11:09:00;94879.06;;;7.68
31528;BMP280;10206;48.012;10.030;2022-12-05T11:11:29;94876.16;;;7.50
31528;BMP280;10206;48.012;10.030;2022-12-05T11:14:04;94871.44;;;7.74
31528;BMP280;10206;48.012;10.030;2022-12-05T11:16:35;94862.75;;;7.75
31528;BMP280;10206;48.012;10.030;2022-12-05T11:19:33;94863.13;;;7.87
31528;BMP280;10206;48.012;10.030;2022-12-05T11:21:59;94860.94;;;8.08
31528;BMP280;10206;48.012;10.030;2022-12-05T11:24:30;94870.53;;;8.24
31528;BMP280;10206;48.012;10.030;2022-12-05T11:29:43;94871.44;;;8.42
31528;BMP280;10206;48.012;10.030;2022-12-05T11:32:18;94865.78;;;8.47
31528;BMP280;10206;48.012;10.030;2022-12-05T11:37:25;94842.72;;;8.71
31528;BMP280;10206;48.012;10.030;2022-12-05T11:39:52;94845.97;;;8.69
31528;BMP280;10206;48.012;10.030;2022-12-05T11:42:31;94856.66;;;8.67
31528;BMP280;10206;48.012;10.030;2022-12-05T11:45:24;94856.66;;;8.67
31528;BMP280;10206;48.012;10.030;2022-12-05T12:02:28;94846.34;;;8.66
31528;BMP280;10206;48.012;10.030;2022-12-05T12:07:38;94844.13;;;8.72
31528;BMP280;10206;48.012;10.030;2022-12-05T12:10:20;94843.25;;;8.69
31528;BMP280;10206;48.012;10.030;2022-12-05T12:27:05;94832.66;;;8.41
31528;BMP280;10206;48.012;10.030;2022-12-05T12:32:55;94832.47;;;8.86
31528;BMP280;10206;48.012;10.030;2022-12-05T12:41:17;94824.63;;;8.58
31528;BMP280;10206;48.012;10.030;2022-12-05T12:44:03;94822.28;;;8.55
31528;BMP280;10206;48.012;10.030;2022-12-05T12:51:43;94833.03;;;8.45
31528;BMP280;10206;48.012;10.030;2022-12-05T12:54:48;94836.25;;;8.51
31528;BMP280;10206;48.012;10.030;2022-12-05T12:57:39;94824.66;;;8.43
31528;BMP280;10206;48.012;10.030;2022-12-05T13:02:56;94826.16;;;8.29
31528;BMP280;10206;48.012;10.030;2022-12-05T13:05:41;94822.19;;;8.07
31528;BMP280;10206;48.012;10.030;2022-12-05T13:10:44;94833.63;;;7.98
31528;BMP280;10206;48.012;10.030;2022-12-05T13:13:21;94838.50;;;8.15
31528;BMP280;10206;48.012;10.030;2022-12-05T13:15:51;94837.78;;;8.14
31528;BMP280;10206;48.012;10.030;2022-12-05T13:18:21;94833.81;;;7.78
31528;BMP280;10206;48.012;10.030;2022-12-05T13:20:53;94839.22;;;8.08
31528;BMP280;10206;48.012;10.030;2022-12-05T13:23:28;94833.44;;;8.04
31528;BMP280;10206;48.012;10.030;2022-12-05T13:25:57;94834.91;;;7.90
31528;BMP280;10206;48.012;10.030;2022-12-05T13:28:34;94837.22;;;8.01
31528;BMP280;10206;48.012;10.030;2022-12-05T13:31:08;94828.16;;;8.21
31528;BMP280;10206;48.012;10.030;2022-12-05T13:33:41;94828.69;;;8.35
31528;BMP280;10206;48.012;10.030;2022-12-05T13:36:13;94829.75;;;8.39
31528;BMP280;10206;48.012;10.030;2022-12-05T13:39:01;94833.19;;;8.40
31528;BMP280;10206;48.012;10.030;2022-12-05T13:41:54;94836.06;;;8.49
31528;BMP280;10206;48.012;10.030;2022-12-05T13:51:00;94848.09;;;8.16
31528;BMP280;10206;48.012;10.030;2022-12-05T13:56:01;94842.47;;;8.29
31528;BMP280;10206;48.012;10.030;2022-12-05T14:04:01;94842.91;;;8.65
31528;BMP280;10206;48.012;10.030;2022-12-05T14:17:40;94841.69;;;8.51
31528;BMP280;10206;48.012;10.030;2022-12-05T14:26:42;94830.38;;;7.92
31528;BMP280;10206;48.012;10.030;2022-12-05T14:32:23;94832.38;;;7.84
31528;BMP280;10206;48.012;10.030;2022-12-05T14:34:57;94837.78;;;7.84
31528;BMP280;10206;48.012;10.030;2022-12-05T14:37:37;94843.56;;;7.88
31528;BMP280;10206;48.012;10.030;2022-12-05T14:40:39;94839.97;;;7.86
31528;BMP280;10206;48.012;10.030;2022-12-05T14:43:25;94843.78;;;7.83
31528;BMP280;10206;48.012;10.030;2022-12-05T14:48:33;94842.84;;;8.10
31528;BMP280;10206;48.012;10.030;2022-12-05T14:51:02;94834.16;;;7.97
31528;BMP280;10206;48.012;10.030;2022-12-05T14:53:48;94839.97;;;7.86
31528;BMP280;10206;48.012;10.030;2022-12-05T14:58:50;94844.13;;;7.64
31528;BMP280;10206;48.012;10.030;2022-12-05T15:01:24;94851.72;;;7.50
31528;BMP280;10206;48.012;10.030;2022-12-05T15:04:30;94847.53;;;7.49
31528;BMP280;10206;48.012;10.030;2022-12-05T15:07:03;94850.25;;;7.42
31528;BMP280;10206;48.012;10.030;2022-12-05T15:12:33;94868.13;;;7.22
31528;BMP280;10206;48.012;10.030;2022-12-05T15:15:59;94878.56;;;7.18
31528;BMP280;10206;48.012;10.030;2022-12-05T15:20:40;94881.81;;;7.17
31528;BMP280;10206;48.012;10.030;2022-12-05T15:31:45;94881.09;;;7.16
31528;BMP280;10206;48.012;10.030;2022-12-05T15:42:49;94878.78;;;7.28
31528;BMP280;10206;48.012;10.030;2022-12-05T15:45:25;94881.50;;;7.28
31528;BMP280;10206;48.012;10.030;2022-12-05T15:47:56;94881.47;;;7.20
31528;BMP280;10206;48.012;10.030;2022-12-05T15:50:44;94887.84;;;7.23
31528;BMP280;10206;48.012;10.030;2022-12-05T15:55:56;94878.69;;;7.05
31528;BMP280;10206;48.012;10.030;2022-12-05T15:58:35;94892.25;;;7.05
31528;BMP280;10206;48.012;10.030;2022-12-05T16:04:01;94880.09;;;6.91
31528;BMP280;10206;48.012;10.030;2022-12-05T16:06:47;94880.97;;;6.86
31528;BMP280;10206;48.012;10.030;2022-12-05T16:09:22;94879.00;;;6.86
31528;BMP280;10206;48.012;10.030;2022-12-05T16:12:20;94872.13;;;6.78
31528;BMP280;10206;48.012;10.030;2022-12-05T16:14:51;94869.00;;;6.74
31528;BMP280;10206;48.012;10.030;2022-12-05T16:17:18;94877.25;;;6.61
31528;BMP280;10206;48.012;10.030;2022-12-05T16:19:45;94875.19;;;6.54
31528;BMP280;10206;48.012;10.030;2022-12-05T16:27:28;94863.09;;;5.98
31528;BMP280;10206;48.012;10.030;2022-12-05T16:30:26;94867.19;;;5.92
31528;BMP280;10206;48.012;10.030;2022-12-05T16:33:04;94872.22;;;5.67
31528;BMP280;10206;48.012;10.030;2022-12-05T16:38:17;94868.97;;;5.48
31528;BMP280;10206;48.012;10.030;2022-12-05T16:48:44;94873.97;;;4.97
31528;BMP280;10206;48.012;10.030;2022-12-05T16:51:20;94874.75;;;4.71
31528;BMP280;10206;48.012;10.030;2022-12-05T16:53:51;94873.38;;;4.78
31528;BMP280;10206;48.012;10.030;2022-12-05T16:56:24;94876.78;;;4.65
31528;BMP280;10206;48.012;10.030;2022-12-05T16:58:51;94876.59;;;4.76
31528;BMP280;10206;48.012;10.030;2022-12-05T17:01:26;94879.31;;;4.63
31528;BMP280;10206;48.012;10.030;2022-12-05T17:03:54;94878.47;;;4.55
31528;BMP280;10206;48.012;10.030;2022-12-05T17:06:22;94878.56;;;4.63
31528;BMP280;10206;48.012;10.030;2022-12-05T17:08:52;94876.41;;;4.61
31528;BMP280;10206;48.012;10.030;2022-12-05T17:11:30;94885.75;;;4.47
31528;BMP280;10206;48.012;10.030;2022-12-05T17:13:59;94875.47;;;4.45
31528;BMP280;10206;48.012;10.030;2022-12-05T17:16:25;94880.22;;;4.53
31528;BMP280;10206;48.012;10.030;2022-12-05T17:18:52;94879.91;;;4.56
31528;BMP280;10206;48.012;10.030;2022-12-05T17:21:20;94883.47;;;4.51
31528;BMP280;10206;48.012;10.030;2022-12-05T17:23:47;94888.00;;;4.56
31528;BMP280;10206;48.012;10.030;2022-12-05T17:26:15;94886.38;;;4.53
31528;BMP280;10206;48.012;10.030;2022-12-05T17:28:41;94886.97;;;4.46
31528;BMP280;10206;48.012;10.030;2022-12-05T17:31:16;94886.66;;;4.49
31528;BMP280;10206;48.012;10.030;2022-12-05T17:33:44;94889.78;;;4.54
31528;BMP280;10206;48.012;10.030;2022-12-05T17:36:11;94893.63;;;4.58
31528;BMP280;10206;48.012;10.030;2022-12-05T17:38:37;94899.13;;;4.66
31528;BMP280;10206;48.012;10.030;2022-12-05T17:41:04;94908.50;;;4.78
31528;BMP280;10206;48.012;10.030;2022-12-05T17:43:31;94910.78;;;4.87
31528;BMP280;10206;48.012;10.030;2022-12-05T17:46:01;94915.88;;;5.03
31528;BMP280;10206;48.012;10.030;2022-12-05T17:48:27;94917.22;;;5.10
31528;BMP280;10206;48.012;10.030;2022-12-05T17:50:54;94914.91;;;5.14
31528;BMP280;10206;48.012;10.030;2022-12-05T17:53:23;94919.81;;;5.16